Aérodrome :
LOGIN :

S'inscrire | Disclaimer

   EN    FR    IT 

 










Légende :    VFR   VFR Marginal   IFR   IFR Intensif   IFR Très Intensif
Visi : 
Plafond : 
>= 8 km
>= 3000ft
5 à 8 km
1000 à 3000 ft
1500m à 5 km
500 à 1000 ft
800 à 1500m
200 à 500 ft
< 800m
< 200 ft
Symboles :   Orages  Brouillard  Fortes neiges  Fortes précipitations  Vent > 20 kt
SIGMETs :   Divers  Orages  Givrage  Turbulence  Onde Orograph.  Cendres Volcan.







- Altitude de l'aérodrome : 1234 ft
- Code IATA : LUX


ELLX - Luxembourg Findel

DERNIER METAR :
  • 211220Z 25012KT 9999 FEW006 BKN008 BKN042 12/11 Q1012 NOSIG

METARs EXPIRÉS :
  • 211150Z 27012KT 4500 -RA FEW008 BKN045 11/10 Q1012 RERA NOSIG
  • 211120Z 27016G26KT 3500 RA FEW007 BKN030 11/10 Q1012 NOSIG
  • 211050Z 26020KT 2500 RA SCT007 BKN011 13/12 Q1011 NOSIG
  • 211020Z 24017KT 200V260 9999 -RA BKN014 17/14 Q1010 NOSIG
  • 210950Z 22013G25KT 190V250 9999 OVC018 17/14 Q1010 TEMPO 23020G35KT

TAF TAF ELLX
Valide du 21 à 12h jusqu'au 22 à 18h UTC


211100Z 2112/2218 24015G25KT 9999 -RA SCT020
TEMPO 2112/2113 3000 RA BKN008
BECMG 2117/2119 27008KT
ATIS : +352 4798 27300
Météo : +352 4798 27010 / 27050
Pas de NOTAMs connus pour ce terrain.



MET'MAP, la Météo Aéronautique d'un coup d'oeil ! - Copyright ORBIFLY Décembre 2007 - Disclaimer

ORBIFLY MET'MAP TEAM :

Programmation & Développement : Alexandra Zaïnal
Conception & Développement : Baudouin d'Aumeries
Co-Programmation & Développement : Marc-Olivier Méhu
Soutien technique & logistique : Manuel Goepfert

Contact : metmap@orbifly.com




SOURCES & CREDITS :

   NOAA